Time;durP1;ratioP1;P1;durP2;ratioP2;P2;SDS_P1;SDS_P2;PMS_P1;PMS_P2;Temp;Humidity;BMP_temperature;BMP_pressure;BME280_temperature;BME280_humidity;BME280_pressure;Samples;Min_cycle;Max_cycle;Signal;HPM_P1;HPM_P2
2021/06/01 00:01:40;;;;;;;20.10;14.30;;;15.50;63.90;;;;;;5098046;27;20043;-76
2021/06/01 00:04:06;;;;;;;21.40;15.73;;;15.50;64.00;;;;;;5097883;27;20039;-74
2021/06/01 00:06:33;;;;;;;25.42;16.17;;;15.50;64.20;;;;;;5114585;27;20062;-74
2021/06/01 00:08:58;;;;;;;30.30;16.33;;;15.40;64.40;;;;;;5098847;27;20373;-75
2021/06/01 00:11:24;;;;;;;25.25;17.27;;;15.40;64.50;;;;;;5098010;27;20097;-73
2021/06/01 00:13:50;;;;;;;24.33;16.45;;;15.30;64.70;;;;;;5097277;27;20042;-75
2021/06/01 00:16:16;;;;;;;23.63;16.33;;;15.30;65.00;;;;;;5137055;27;20031;-74
2021/06/01 00:18:42;;;;;;;30.80;18.13;;;15.30;65.00;;;;;;5100269;27;20103;-80
2021/06/01 00:21:09;;;;;;;23.38;16.13;;;15.30;65.20;;;;;;5134515;27;20073;-73
2021/06/01 00:23:37;;;;;;;23.75;16.63;;;15.30;65.30;;;;;;5118087;27;20051;-74
2021/06/01 00:26:07;;;;;;;25.65;16.88;;;15.20;65.40;;;;;;5118053;27;20038;-74
2021/06/01 00:28:33;;;;;;;21.67;16.63;;;15.20;65.60;;;;;;5122147;27;20124;-75
2021/06/01 00:30:59;;;;;;;23.70;16.98;;;15.20;65.80;;;;;;5114059;27;20046;-74
2021/06/01 00:33:25;;;;;;;24.95;16.60;;;15.10;65.90;;;;;;5097712;27;20047;-74
2021/06/01 00:35:51;;;;;;;24.58;16.95;;;15.10;66.00;;;;;;5096907;27;20088;-75
2021/06/01 00:38:16;;;;;;;24.42;16.80;;;15.10;66.10;;;;;;5081008;28;20471;-74
2021/06/01 00:40:42;;;;;;;23.55;16.77;;;15.10;66.30;;;;;;5114240;27;20050;-75
2021/06/01 00:43:08;;;;;;;23.20;16.95;;;15.10;66.50;;;;;;5096827;27;20043;-74
2021/06/01 00:45:37;;;;;;;24.20;17.15;;;15.00;66.60;;;;;;5113691;27;20039;-76
2021/06/01 00:48:03;;;;;;;22.77;16.38;;;15.00;66.80;;;;;;5097061;27;20054;-74
2021/06/01 00:50:29;;;;;;;25.85;16.23;;;15.00;66.90;;;;;;5114236;27;20071;-75
2021/06/01 00:52:56;;;;;;;24.83;17.90;;;15.00;67.00;;;;;;5132141;27;20047;-75
2021/06/01 00:55:22;;;;;;;24.85;18.17;;;14.90;67.20;;;;;;5097317;27;20421;-74
2021/06/01 00:57:48;;;;;;;26.95;17.67;;;14.90;67.40;;;;;;5079782;27;20043;-80
2021/06/01 01:02:58;;;;;;;27.52;17.88;;;14.80;67.50;;;;;;5116290;27;20059;-74
2021/06/01 01:05:27;;;;;;;24.02;17.60;;;14.80;67.50;;;;;;5097092;28;20487;-75
2021/06/01 01:08:20;;;;;;;25.98;17.55;;;14.80;67.60;;;;;;5097261;28;20043;-75
2021/06/01 01:10:47;;;;;;;25.23;18.35;;;14.80;67.90;;;;;;5085736;28;20050;-74
2021/06/01 01:13:13;;;;;;;24.08;18.00;;;14.80;67.80;;;;;;5096769;28;20096;-72
2021/06/01 01:15:39;;;;;;;26.90;18.98;;;14.70;67.90;;;;;;5063739;28;20058;-74
2021/06/01 01:18:07;;;;;;;28.27;17.42;;;14.70;68.10;;;;;;5079369;28;20376;-74
2021/06/01 01:20:47;;;;;;;25.70;18.23;;;14.70;68.10;;;;;;5080570;28;20158;-74
2021/06/01 01:23:14;;;;;;;26.65;18.23;;;14.70;68.60;;;;;;5097597;28;20459;-73
2021/06/01 01:25:50;;;;;;;26.95;19.17;;;14.70;68.30;;;;;;5114008;28;20077;-74
2021/06/01 01:28:50;;;;;;;30.05;19.50;;;14.70;68.80;;;;;;5097548;27;20054;-75
2021/06/01 01:31:31;;;;;;;30.27;21.10;;;14.60;69.10;;;;;;5118000;27;20087;-74
2021/06/01 01:33:58;;;;;;;35.97;20.65;;;14.60;69.10;;;;;;5100627;27;20035;-75
2021/06/01 01:36:24;;;;;;;29.38;19.27;;;14.60;68.60;;;;;;5100852;27;20510;-75
2021/06/01 01:38:49;;;;;;;25.33;18.67;;;14.50;68.70;;;;;;5117844;27;20073;-74
2021/06/01 01:41:15;;;;;;;27.95;18.20;;;14.50;68.90;;;;;;5100046;27;20035;-75
2021/06/01 01:43:42;;;;;;;29.02;19.00;;;14.50;69.00;;;;;;5101003;27;20043;-74
2021/06/01 01:46:51;;;;;;;26.25;17.95;;;14.50;69.20;;;;;;5084117;27;20035;-75
2021/06/01 01:51:25;;;;;;;25.85;20.70;;;14.40;69.30;;;;;;5101233;27;20043;-74
2021/06/01 01:53:53;;;;;;;29.17;19.90;;;14.40;69.40;;;;;;5100583;27;20134;-75
2021/06/01 01:56:21;;;;;;;24.95;18.00;;;14.40;69.60;;;;;;5083259;27;20127;-74
2021/06/01 01:58:51;;;;;;;26.13;18.95;;;14.40;69.70;;;;;;5100585;27;20063;-74
2021/06/01 02:01:17;;;;;;;28.45;18.33;;;14.40;69.80;;;;;;5079559;28;20460;-75
2021/06/01 02:03:43;;;;;;;26.08;19.52;;;14.30;69.80;;;;;;5097129;28;20043;-76
2021/06/01 02:06:09;;;;;;;27.40;18.85;;;14.30;69.90;;;;;;5062980;28;20138;-73
2021/06/01 02:08:39;;;;;;;29.00;19.20;;;14.30;69.90;;;;;;5103417;27;20043;-75
2021/06/01 02:11:05;;;;;;;27.13;18.58;;;14.30;70.10;;;;;;5106661;28;20035;-75
2021/06/01 02:13:32;;;;;;;27.40;18.95;;;14.30;70.10;;;;;;5116484;27;20039;-73
2021/06/01 02:15:58;;;;;;;27.98;18.45;;;14.20;70.20;;;;;;5104003;28;20465;-78
2021/06/01 02:18:24;;;;;;;29.25;19.50;;;14.30;70.20;;;;;;5079219;28;20048;-74
2021/06/01 02:20:53;;;;;;;27.52;19.30;;;14.30;70.30;;;;;;5096444;28;20095;-74
2021/06/01 02:26:29;;;;;;;26.83;19.38;;;14.20;70.40;;;;;;5119456;27;20063;-74
2021/06/01 02:28:58;;;;;;;26.30;18.73;;;14.20;70.50;;;;;;5134318;27;20051;-73
2021/06/01 02:31:30;;;;;;;30.17;19.73;;;14.10;70.50;;;;;;5132750;27;20059;-74
2021/06/01 02:33:57;;;;;;;28.10;20.13;;;14.10;70.60;;;;;;5100813;27;20043;-74
2021/06/01 02:36:22;;;;;;;24.90;19.60;;;14.10;70.60;;;;;;5132992;27;20102;-74
2021/06/01 02:38:48;;;;;;;26.88;19.23;;;14.10;70.80;;;;;;5134005;27;20051;-75
2021/06/01 02:41:14;;;;;;;31.77;21.63;;;14.10;70.80;;;;;;5098664;27;20071;-75
2021/06/01 02:43:40;;;;;;;28.77;19.20;;;14.00;70.80;;;;;;5100118;27;20066;-73
2021/06/01 02:46:09;;;;;;;28.33;19.38;;;14.00;71.00;;;;;;5116503;27;20047;-74
2021/06/01 02:48:35;;;;;;;29.48;21.30;;;14.00;70.90;;;;;;5099819;27;20134;-72
2021/06/01 02:51:14;;;;;;;30.08;20.15;;;14.00;71.10;;;;;;5133936;27;20096;-75
2021/06/01 02:53:51;;;;;;;27.05;18.80;;;14.00;71.20;;;;;;5118563;27;20043;-74
2021/06/01 02:56:24;;;;;;;30.63;20.23;;;14.00;71.30;;;;;;5100787;27;20107;-74
2021/06/01 02:58:56;;;;;;;29.30;20.27;;;13.90;71.20;;;;;;5100857;27;20039;-74
2021/06/01 03:01:24;;;;;;;28.58;19.27;;;13.90;71.20;;;;;;5119312;27;20490;-73
2021/06/01 03:03:51;;;;;;;29.65;19.88;;;13.90;71.20;;;;;;5137518;27;20142;-73
2021/06/01 03:06:24;;;;;;;25.05;18.35;;;13.90;71.20;;;;;;5102745;27;20050;-73
2021/06/01 03:08:50;;;;;;;30.70;19.02;;;13.90;71.40;;;;;;5155287;27;20043;-72
2021/06/01 03:11:17;;;;;;;28.00;18.35;;;13.90;71.40;;;;;;5135998;27;20544;-73
2021/06/01 03:13:44;;;;;;;29.40;20.50;;;13.90;71.40;;;;;;5103127;27;20092;-72
2021/06/01 03:16:10;;;;;;;26.92;18.67;;;13.90;71.40;;;;;;5101889;27;20055;-74
2021/06/01 03:18:36;;;;;;;29.60;19.67;;;13.80;71.40;;;;;;5136708;27;20431;-74
2021/06/01 03:21:02;;;;;;;28.25;19.23;;;13.80;71.50;;;;;;5119519;27;20046;-74
2021/06/01 03:23:28;;;;;;;28.08;20.20;;;13.80;71.60;;;;;;5101892;27;20046;-73
2021/06/01 03:25:54;;;;;;;28.90;19.77;;;13.80;71.60;;;;;;5102413;27;20050;-74
2021/06/01 03:28:20;;;;;;;32.47;20.35;;;13.80;71.60;;;;;;5101822;27;20098;-75
2021/06/01 03:30:46;;;;;;;31.15;20.55;;;13.80;71.70;;;;;;5102449;27;20498;-73
2021/06/01 03:33:13;;;;;;;29.70;20.15;;;13.80;72.60;;;;;;5135737;27;20058;-74
2021/06/01 03:35:38;;;;;;;26.25;19.83;;;13.80;71.80;;;;;;5119138;27;20455;-73
2021/06/01 03:38:04;;;;;;;28.10;19.63;;;13.70;71.80;;;;;;5119265;27;20065;-73
2021/06/01 03:40:30;;;;;;;26.90;19.80;;;13.70;71.80;;;;;;5101737;27;20294;-74
2021/06/01 03:42:56;;;;;;;30.30;20.27;;;13.70;71.90;;;;;;5102262;27;20589;-73
2021/06/01 03:45:23;;;;;;;26.73;19.23;;;13.70;71.90;;;;;;5118328;27;20064;-73
2021/06/01 03:47:49;;;;;;;30.70;20.35;;;13.70;71.90;;;;;;5085477;27;20042;-73
2021/06/01 03:50:15;;;;;;;34.67;19.85;;;13.70;71.90;;;;;;5135526;27;20042;-74
2021/06/01 03:52:41;;;;;;;27.48;19.45;;;13.70;72.00;;;;;;5135968;27;20068;-73
2021/06/01 03:55:07;;;;;;;28.92;20.35;;;13.70;72.00;;;;;;5118694;27;20125;-73
2021/06/01 03:57:34;;;;;;;27.65;19.23;;;13.60;72.00;;;;;;5101521;27;20522;-73
2021/06/01 04:00:00;;;;;;;30.33;20.08;;;13.60;72.10;;;;;;5132235;27;20089;-74
2021/06/01 04:02:26;;;;;;;27.23;18.65;;;13.60;72.10;;;;;;5131625;27;20087;-73
2021/06/01 04:04:51;;;;;;;28.27;19.52;;;13.60;72.10;;;;;;5081567;27;20059;-73
2021/06/01 04:07:17;;;;;;;28.83;19.30;;;13.60;72.00;;;;;;5114048;27;20043;-73
2021/06/01 04:09:43;;;;;;;26.60;19.00;;;13.60;72.00;;;;;;5131861;27;20456;-73
2021/06/01 04:12:10;;;;;;;27.92;20.38;;;13.60;72.70;;;;;;5114991;27;20080;-75
2021/06/01 04:14:36;;;;;;;34.20;20.83;;;13.60;72.00;;;;;;5114253;27;20035;-73
2021/06/01 04:17:02;;;;;;;26.05;18.20;;;13.60;72.00;;;;;;5097859;27;20567;-73
2021/06/01 04:19:28;;;;;;;28.45;19.75;;;13.60;72.00;;;;;;5097182;27;20083;-73
2021/06/01 04:21:54;;;;;;;24.85;17.92;;;13.60;71.90;;;;;;5114967;27;20132;-74
2021/06/01 04:24:27;;;;;;;25.98;18.27;;;13.60;71.80;;;;;;5114012;27;20379;-73
2021/06/01 04:27:00;;;;;;;23.55;17.85;;;13.60;71.90;;;;;;5115516;27;20043;-74
2021/06/01 04:29:26;;;;;;;;;;;13.60;71.90;;;;;;5114853;27;20091;-73
2021/06/01 04:31:51;;;;;;;24.40;17.00;;;13.60;72.00;;;;;;5133084;27;19919;-75
2021/06/01 04:34:17;;;;;;;22.65;17.27;;;13.60;71.50;;;;;;5097524;27;20055;-77
2021/06/01 04:36:43;;;;;;;23.95;16.80;;;13.60;71.50;;;;;;5114228;27;20122;-73
2021/06/01 04:39:09;;;;;;;26.83;17.48;;;13.60;71.50;;;;;;5114586;27;20031;-74
2021/06/01 04:41:35;;;;;;;23.15;16.92;;;13.60;71.50;;;;;;5096704;27;20043;-74
2021/06/01 04:44:01;;;;;;;23.17;17.00;;;13.60;71.50;;;;;;5098572;27;20050;-75
2021/06/01 04:46:29;;;;;;;25.55;17.75;;;13.60;71.40;;;;;;5115017;27;20035;-73
2021/06/01 04:48:55;;;;;;;24.30;16.67;;;13.60;71.30;;;;;;5115271;27;20466;-74
2021/06/01 04:51:21;;;;;;;21.98;15.90;;;13.60;71.20;;;;;;5131812;27;20043;-77
2021/06/01 04:53:48;;;;;;;21.40;15.68;;;13.60;71.10;;;;;;5129328;27;20645;-74
2021/06/01 04:56:14;;;;;;;23.52;16.33;;;13.60;71.10;;;;;;5130829;27;20035;-74
2021/06/01 04:58:40;;;;;;;21.52;15.77;;;13.60;71.00;;;;;;5096781;27;20482;-77
2021/06/01 05:01:06;;;;;;;23.02;14.68;;;13.60;70.90;;;;;;5111369;27;20104;-74
2021/06/01 05:03:32;;;;;;;24.15;16.25;;;13.60;70.80;;;;;;5114269;27;20100;-74
2021/06/01 05:06:00;;;;;;;23.23;15.57;;;13.60;70.80;;;;;;5109287;28;20055;-75
2021/06/01 05:08:26;;;;;;;21.75;14.00;;;13.60;70.80;;;;;;5122560;27;20038;-73
2021/06/01 05:10:55;;;;;;;20.45;14.07;;;13.60;70.70;;;;;;5094120;28;20099;-75
2021/06/01 05:13:21;;;;;;;22.63;15.07;;;13.60;70.60;;;;;;5129769;28;20114;-77
2021/06/01 05:15:49;;;;;;;19.90;13.25;;;13.60;70.50;;;;;;5127180;28;20111;-73
2021/06/01 05:18:15;;;;;;;19.63;12.95;;;13.60;70.50;;;;;;5129546;27;20035;-73
2021/06/01 05:20:41;;;;;;;18.33;13.52;;;13.60;70.20;;;;;;5092540;28;20756;-73
2021/06/01 05:23:07;;;;;;;19.50;13.15;;;13.60;70.20;;;;;;5094060;28;20039;-73
2021/06/01 05:25:33;;;;;;;17.13;11.82;;;13.60;70.20;;;;;;5110557;28;20043;-73
2021/06/01 05:27:59;;;;;;;18.33;12.93;;;13.60;70.10;;;;;;5095952;28;20392;-75
2021/06/01 05:30:40;;;;;;;16.50;11.70;;;13.60;70.00;;;;;;5113659;28;20040;-77
2021/06/01 05:33:22;;;;;;;14.98;11.60;;;13.60;69.80;;;;;;5127507;28;20360;-76
2021/06/01 05:35:53;;;;;;;16.55;11.93;;;13.60;69.60;;;;;;5100798;28;20043;-75
2021/06/01 05:38:24;;;;;;;16.00;11.10;;;13.60;69.60;;;;;;5107544;28;20039;-74
2021/06/01 05:40:51;;;;;;;16.35;12.13;;;13.60;69.60;;;;;;5095158;28;20091;-74
2021/06/01 05:43:16;;;;;;;17.33;10.93;;;13.70;69.50;;;;;;5109954;28;20039;-74
2021/06/01 05:45:43;;;;;;;15.38;10.82;;;13.70;69.50;;;;;;5096326;27;20165;-73
2021/06/01 05:48:11;;;;;;;21.75;11.40;;;13.70;69.40;;;;;;5094938;28;20035;-72
2021/06/01 05:50:37;;;;;;;16.38;11.02;;;13.70;69.30;;;;;;5094379;28;20035;-73
2021/06/01 05:53:04;;;;;;;16.77;11.45;;;13.70;69.20;;;;;;5130101;27;20046;-73
2021/06/01 05:55:30;;;;;;;17.48;11.52;;;13.80;69.10;;;;;;5112686;28;20085;-75
2021/06/01 05:57:56;;;;;;;17.63;11.90;;;13.80;69.20;;;;;;5098538;28;20048;-73
2021/06/01 06:00:22;;;;;;;17.88;12.25;;;13.80;69.20;;;;;;5112329;28;20232;-75
2021/06/01 06:02:49;;;;;;;16.73;12.43;;;13.80;69.10;;;;;;5111081;28;20043;-73
2021/06/01 06:05:16;;;;;;;18.58;13.05;;;13.80;68.90;;;;;;5103606;28;20043;-70
2021/06/01 06:07:42;;;;;;;12.30;8.85;;;13.90;69.00;;;;;;5122404;28;20046;-72
2021/06/01 06:10:09;;;;;;;15.82;10.15;;;14.00;70.40;;;;;;5124765;28;20521;-69
2021/06/01 06:12:38;;;;;;;11.90;9.13;;;14.30;71.20;;;;;;5111721;28;20043;-77
2021/06/01 06:15:05;;;;;;;14.95;9.88;;;14.70;71.00;;;;;;5103211;28;20039;-77
2021/06/01 06:17:43;;;;;;;12.82;9.80;;;15.10;70.30;;;;;;5086602;28;20040;-80
2021/06/01 06:20:09;;;;;;;14.65;9.70;;;15.40;69.70;;;;;;5103687;28;20495;-81
2021/06/01 06:22:36;;;;;;;14.02;11.13;;;15.60;69.10;;;;;;5119895;27;20050;-92
2021/06/01 06:25:06;;;;;;;14.90;11.63;;;15.90;68.70;;;;;;5106053;27;20116;-81
2021/06/01 06:27:32;;;;;;;20.15;12.77;;;16.00;68.20;;;;;;5096269;27;20043;-84
2021/06/01 06:30:06;;;;;;;15.55;10.43;;;16.10;67.70;;;;;;5091810;28;20047;-88
2021/06/01 06:32:32;;;;;;;18.00;11.50;;;16.10;67.80;;;;;;5101134;28;20071;-87
2021/06/01 06:34:59;;;;;;;15.50;10.93;;;16.20;67.30;;;;;;5099137;27;20042;-85
2021/06/01 06:37:25;;;;;;;16.95;13.30;;;16.20;66.90;;;;;;5108155;27;20390;-81
2021/06/01 06:39:51;;;;;;;16.15;11.38;;;16.30;66.70;;;;;;5111890;28;20048;-81
2021/06/01 06:42:17;;;;;;;16.40;11.43;;;16.30;66.70;;;;;;5104534;28;20092;-78
2021/06/01 06:44:49;;;;;;;14.35;9.98;;;16.40;66.50;;;;;;5113326;27;20049;-81
2021/06/01 06:47:39;;;;;;;14.90;11.15;;;16.50;66.60;;;;;;5109179;28;20088;-73
2021/06/01 06:50:07;;;;;;;17.58;12.02;;;16.60;66.10;;;;;;5099028;28;20136;-72
2021/06/01 06:52:34;;;;;;;17.70;12.82;;;16.50;65.80;;;;;;5079909;28;20399;-76
2021/06/01 06:55:00;;;;;;;14.57;12.35;;;16.40;65.70;;;;;;5096636;28;20181;-74
2021/06/01 06:57:27;;;;;;;19.05;12.60;;;16.40;65.60;;;;;;5097117;28;20050;-74
2021/06/01 06:59:53;;;;;;;16.15;11.90;;;16.30;65.40;;;;;;5098482;27;20059;-73
2021/06/01 07:02:21;;;;;;;17.85;11.95;;;16.20;65.30;;;;;;5113175;28;20407;-73
2021/06/01 07:04:48;;;;;;;18.42;11.48;;;16.20;65.20;;;;;;5096081;28;20098;-73
2021/06/01 07:07:14;;;;;;;19.30;11.73;;;16.20;65.10;;;;;;5096014;28;20123;-72
2021/06/01 07:09:40;;;;;;;14.73;10.52;;;16.20;65.00;;;;;;5113040;28;20118;-75
2021/06/01 07:12:07;;;;;;;15.93;11.00;;;16.10;64.80;;;;;;5095785;28;20039;-72
2021/06/01 07:14:49;;;;;;;14.13;11.15;;;16.10;64.60;;;;;;5096776;28;20040;-72
2021/06/01 07:17:15;;;;;;;17.98;10.57;;;16.20;64.10;;;;;;5096383;28;20035;-72
2021/06/01 07:19:43;;;;;;;13.82;10.77;;;16.20;64.10;;;;;;5096276;28;20048;-75
2021/06/01 07:22:09;;;;;;;14.88;9.93;;;16.20;63.90;;;;;;5096486;28;20044;-73
2021/06/01 07:24:36;;;;;;;18.35;10.93;;;16.30;63.80;;;;;;5080435;28;20048;-72
2021/06/01 07:27:25;;;;;;;13.30;10.35;;;16.30;63.40;;;;;;5099190;28;20054;-75
2021/06/01 07:29:54;;;;;;;15.10;10.57;;;16.30;63.30;;;;;;5080181;28;20052;-74
2021/06/01 07:32:40;;;;;;;17.77;10.43;;;16.30;63.30;;;;;;5098807;28;20489;-77
2021/06/01 07:35:07;;;;;;;15.98;9.80;;;16.40;63.40;;;;;;5095671;28;20051;-72
2021/06/01 07:37:39;;;;;;;18.77;10.50;;;16.40;63.60;;;;;;5112684;28;20043;-74
2021/06/01 07:40:08;;;;;;;14.55;8.77;;;16.40;64.20;;;;;;5095466;28;20043;-74
2021/06/01 07:42:34;;;;;;;18.85;9.30;;;16.50;63.20;;;;;;5095543;28;20036;-73
2021/06/01 07:44:59;;;;;;;17.90;9.25;;;16.60;62.90;;;;;;5111631;28;20092;-73
2021/06/01 07:47:26;;;;;;;13.68;8.68;;;16.60;62.20;;;;;;5112738;28;20372;-73
2021/06/01 07:49:51;;;;;;;11.38;8.55;;;16.70;61.60;;;;;;5095076;28;20059;-73
2021/06/01 07:52:20;;;;;;;15.48;8.77;;;16.70;61.60;;;;;;5113263;28;20048;-74
2021/06/01 07:54:46;;;;;;;12.15;9.25;;;16.80;61.40;;;;;;5094797;28;20039;-72
2021/06/01 07:57:12;;;;;;;11.85;8.13;;;16.80;61.30;;;;;;5112391;28;20502;-74
2021/06/01 07:59:49;;;;;;;14.07;8.90;;;16.90;61.00;;;;;;5112192;28;20035;-75
2021/06/01 08:02:17;;;;;;;11.90;8.55;;;17.00;60.50;;;;;;5112631;28;20055;-74
2021/06/01 08:04:43;;;;;;;12.88;7.95;;;17.00;59.70;;;;;;5095008;28;20063;-77
2021/06/01 08:07:11;;;;;;;18.23;8.40;;;17.10;59.70;;;;;;5111848;28;20070;-73
2021/06/01 08:09:37;;;;;;;13.10;8.38;;;17.20;59.60;;;;;;5112590;28;20044;-73
2021/06/01 08:12:03;;;;;;;10.45;7.03;;;17.20;59.40;;;;;;5094631;28;20032;-75
2021/06/01 08:14:42;;;;;;;10.25;7.25;;;17.30;58.80;;;;;;5097517;28;20035;-73
2021/06/01 08:17:13;;;;;;;11.23;7.85;;;17.30;58.40;;;;;;5095267;28;20040;-73
2021/06/01 08:19:43;;;;;;;11.57;7.57;;;17.40;58.10;;;;;;5095519;28;20046;-74
2021/06/01 08:22:33;;;;;;;11.40;6.97;;;17.50;57.60;;;;;;5111897;28;20526;-73
2021/06/01 08:24:58;;;;;;;9.90;7.22;;;17.60;57.20;;;;;;5110490;28;20515;-73
2021/06/01 08:27:30;;;;;;;9.30;6.95;;;17.60;56.80;;;;;;5112322;28;20065;-74
2021/06/01 08:29:56;;;;;;;11.23;7.90;;;17.70;56.40;;;;;;5096492;28;20039;-77
2021/06/01 08:32:24;;;;;;;9.30;6.00;;;17.80;57.40;;;;;;5097697;28;20460;-76
2021/06/01 08:34:49;;;;;;;9.40;6.35;;;17.90;58.30;;;;;;5097753;28;20075;-78
2021/06/01 08:37:17;;;;;;;9.00;6.55;;;18.10;58.30;;;;;;5098798;28;20067;-76
2021/06/01 08:39:43;;;;;;;7.82;5.95;;;18.30;58.30;;;;;;5096823;28;20087;-76
2021/06/01 08:42:09;;;;;;;9.30;6.22;;;18.50;57.70;;;;;;5096874;28;20503;-75
2021/06/01 08:44:35;;;;;;;10.57;7.18;;;18.60;57.00;;;;;;5115264;28;20052;-78
2021/06/01 08:47:04;;;;;;;9.50;6.90;;;18.70;56.70;;;;;;5099165;28;20039;-79
2021/06/01 08:49:30;;;;;;;13.25;6.07;;;18.80;55.60;;;;;;5101002;28;20039;-82
2021/06/01 08:51:56;;;;;;;8.43;6.30;;;19.00;54.90;;;;;;5111685;27;20043;-80
2021/06/01 08:54:26;;;;;;;10.70;6.70;;;19.10;54.40;;;;;;5121086;27;20031;-79
2021/06/01 08:56:53;;;;;;;10.65;6.30;;;19.10;54.00;;;;;;5119978;27;20095;-82
2021/06/01 08:59:20;;;;;;;8.65;6.25;;;19.20;53.60;;;;;;5099288;28;20043;-79
2021/06/01 09:01:46;;;;;;;11.80;6.78;;;19.30;53.00;;;;;;5121480;27;20125;-79
2021/06/01 09:04:13;;;;;;;10.52;6.60;;;19.40;52.10;;;;;;5104670;28;20050;-79
2021/06/01 09:06:50;;;;;;;8.13;5.80;;;19.50;51.50;;;;;;5087370;27;20062;-77
2021/06/01 09:22:58;;;;;;;10.82;5.82;;;20.40;49.40;;;;;;5107665;28;20129;-83
2021/06/01 09:26:01;;;;;;;7.90;5.63;;;20.50;49.30;;;;;;5121697;28;20047;-79
2021/06/01 09:28:19;;;;;;;10.13;6.50;;;20.60;49.00;;;;;;5122287;28;20075;-80
2021/06/01 09:30:59;;;;;;;8.80;6.15;;;20.80;48.60;;;;;;5122031;28;20070;-78
2021/06/01 09:33:27;;;;;;;9.55;6.18;;;21.00;49.20;;;;;;5139117;28;20039;-79
2021/06/01 09:36:02;;;;;;;8.32;5.70;;;21.10;48.30;;;;;;5122007;28;20095;-84
2021/06/01 09:38:30;;;;;;;7.65;5.72;;;21.20;46.80;;;;;;5121975;28;20490;-79
2021/06/01 09:41:06;;;;;;;9.82;5.40;;;21.30;47.30;;;;;;5105579;28;20051;-81
2021/06/01 09:43:33;;;;;;;8.85;4.93;;;21.50;47.10;;;;;;5100652;28;20035;-77
2021/06/01 09:46:19;;;;;;;7.50;5.50;;;21.60;46.80;;;;;;5100792;28;20051;-79
2021/06/01 09:48:46;;;;;;;10.25;5.78;;;21.70;46.10;;;;;;5135435;28;20062;-76
2021/06/01 09:51:13;;;;;;;6.20;5.20;;;21.80;46.00;;;;;;5138888;27;20055;-78
2021/06/01 09:53:39;;;;;;;9.63;5.55;;;22.00;45.50;;;;;;5124919;27;20039;-75
2021/06/01 09:56:05;;;;;;;8.73;5.68;;;22.10;46.30;;;;;;5121524;27;20053;-75
2021/06/01 09:58:32;;;;;;;9.32;5.30;;;22.20;46.20;;;;;;5124995;27;20367;-77
2021/06/01 10:01:02;;;;;;;9.18;5.53;;;22.30;45.40;;;;;;5125464;27;20071;-84
2021/06/01 10:03:38;;;;;;;8.00;5.45;;;22.50;45.60;;;;;;5108491;27;20077;-79
2021/06/01 10:06:04;;;;;;;8.10;4.80;;;22.60;44.30;;;;;;5126339;27;20499;-81
2021/06/01 10:08:31;;;;;;;9.52;5.60;;;22.70;44.20;;;;;;5109254;27;20467;-79
2021/06/01 10:11:09;;;;;;;7.00;5.20;;;22.80;44.50;;;;;;5108518;27;20045;-79
2021/06/01 10:13:37;;;;;;;6.85;5.35;;;23.00;44.30;;;;;;5111115;27;20480;-79
2021/06/01 10:16:10;;;;;;;8.27;5.10;;;23.10;43.20;;;;;;5109781;27;20035;-83
2021/06/01 10:18:41;;;;;;;8.18;5.25;;;23.20;41.80;;;;;;5108246;27;20059;-81
2021/06/01 10:21:09;;;;;;;7.57;4.38;;;23.30;42.20;;;;;;5109182;27;20070;-80
2021/06/01 10:23:39;;;;;;;7.75;5.00;;;23.50;41.30;;;;;;5125382;27;20044;-81
2021/06/01 10:26:07;;;;;;;7.97;5.03;;;23.60;41.00;;;;;;5109699;27;20062;-86
2021/06/01 10:28:34;;;;;;;8.90;5.07;;;23.70;40.40;;;;;;5125259;27;20096;-82
2021/06/01 10:31:03;;;;;;;8.88;6.50;;;23.80;40.40;;;;;;5142817;27;20088;-82
2021/06/01 10:33:45;;;;;;;7.32;5.35;;;23.90;40.00;;;;;;5087627;28;20055;-79
2021/06/01 10:50:21;;;;;;;5.70;4.72;;;24.80;39.00;;;;;;5118903;28;20040;-76
2021/06/01 10:53:08;;;;;;;8.00;4.45;;;24.90;38.60;;;;;;5088886;28;20048;-75
2021/06/01 10:56:02;;;;;;;7.53;4.75;;;25.10;38.60;;;;;;5101823;28;20051;-74
2021/06/01 10:58:45;;;;;;;7.32;4.90;;;25.20;38.00;;;;;;5110233;28;20056;-72
2021/06/01 11:04:28;;;;;;;6.50;4.43;;;25.40;37.50;;;;;;5115428;28;20426;-72
2021/06/01 11:09:36;;;;;;;7.97;4.47;;;25.70;36.60;;;;;;5114382;28;19924;-74
2021/06/01 11:12:15;;;;;;;6.75;4.32;;;25.80;37.20;;;;;;5114545;28;20050;-74
2021/06/01 11:14:41;;;;;;;6.78;4.05;;;26.00;36.30;;;;;;5118175;27;20039;-75
2021/06/01 11:17:10;;;;;;;5.15;4.28;;;26.10;36.20;;;;;;5117150;27;20050;-77
2021/06/01 11:19:58;;;;;;;7.10;5.03;;;26.30;36.40;;;;;;5104783;27;20047;-75
2021/06/01 11:22:39;;;;;;;8.82;5.30;;;26.50;35.60;;;;;;5119320;27;20039;-77
2021/06/01 11:33:34;;;;;;;9.40;5.30;;;27.20;34.20;;;;;;5122680;27;20091;-75
2021/06/01 11:36:10;;;;;;;10.63;5.90;;;27.30;33.70;;;;;;5135503;27;20114;-75
2021/06/01 11:38:46;;;;;;;7.72;5.03;;;27.50;32.80;;;;;;5101917;27;20396;-75
2021/06/01 11:43:56;;;;;;;9.55;5.60;;;27.90;32.50;;;;;;5136029;27;20103;-75
2021/06/01 11:46:30;;;;;;;9.75;5.65;;;28.00;32.70;;;;;;5100980;27;20068;-76
2021/06/01 11:51:47;;;;;;;11.88;6.60;;;28.30;32.00;;;;;;5121588;27;20395;-77
2021/06/01 11:54:15;;;;;;;11.30;6.40;;;28.50;32.70;;;;;;5118090;27;20050;-77
2021/06/01 12:04:50;;;;;;;6.32;4.30;;;28.90;31.30;;;;;;5116513;27;20035;-76
2021/06/01 12:13:08;;;;;;;10.63;5.05;;;29.10;31.00;;;;;;5119519;28;20471;-75
2021/06/01 12:18:38;;;;;;;11.90;5.00;;;29.30;29.80;;;;;;5121549;27;20055;-81
2021/06/01 12:21:19;;;;;;;11.30;5.38;;;29.40;30.00;;;;;;5089601;27;20142;-74
2021/06/01 12:23:50;;;;;;;10.18;4.60;;;29.40;29.90;;;;;;5103723;27;20054;-76
2021/06/01 12:26:39;;;;;;;9.82;4.75;;;29.60;29.60;;;;;;5101728;27;20039;-74
2021/06/01 12:31:57;;;;;;;7.30;4.35;;;29.70;29.30;;;;;;5117366;28;20151;-77
2021/06/01 12:34:44;;;;;;;7.75;4.22;;;29.80;29.50;;;;;;5090280;28;20063;-81
2021/06/01 13:06:45;;;;;;;5.20;3.30;;;30.70;26.50;;;;;;5113579;28;20040;-79
2021/06/01 13:12:05;;;;;;;8.20;3.58;;;30.80;26.60;;;;;;5114358;28;20043;-79
2021/06/01 13:20:26;;;;;;;5.60;3.83;;;30.90;27.10;;;;;;5120736;28;20043;-76
2021/06/01 13:39:40;;;;;;;5.57;3.55;;;31.00;27.20;;;;;;5123199;27;20091;-76
2021/06/01 13:48:08;;;;;;;6.57;3.88;;;31.10;26.90;;;;;;5123910;27;20039;-76
2021/06/01 13:55:53;;;;;;;6.95;4.22;;;31.20;26.70;;;;;;5106887;27;20069;-75
2021/06/01 14:01:04;;;;;;;8.00;4.10;;;31.10;26.50;;;;;;5122495;27;20042;-77
2021/06/01 14:15:14;;;;;;;7.95;3.97;;;31.10;26.80;;;;;;5133592;27;20090;-77
2021/06/01 14:30:43;;;;;;;5.90;3.85;;;30.90;26.30;;;;;;5125172;27;20069;-81
2021/06/01 14:36:12;;;;;;;7.38;4.45;;;30.80;26.50;;;;;;5119037;27;20039;-74
2021/06/01 16:12:07;;;;;;;7.30;6.00;;;28.90;30.00;;;;;;5112151;27;20050;-84
2021/06/01 16:23:12;;;;;;;10.18;6.25;;;28.70;30.30;;;;;;5135172;27;20065;-80
2021/06/01 17:06:42;;;;;;;9.10;7.57;;;27.50;31.60;;;;;;5108038;27;20170;-75
2021/06/01 17:11:40;;;;;;;9.38;6.65;;;27.40;32.10;;;;;;5116513;27;20091;-78
2021/06/01 17:14:06;;;;;;;9.73;6.93;;;27.30;32.40;;;;;;5098191;27;20094;-80
2021/06/01 17:35:40;;;;;;;9.82;7.55;;;26.80;33.50;;;;;;5120644;27;20061;-78
2021/06/01 17:38:12;;;;;;;9.30;7.25;;;26.70;33.60;;;;;;5118915;28;20039;-79
2021/06/01 17:40:40;;;;;;;10.38;7.47;;;26.60;33.80;;;;;;5119464;27;20506;-78
2021/06/01 17:43:07;;;;;;;8.00;6.95;;;26.60;33.90;;;;;;5116369;27;20061;-80
2021/06/01 17:45:36;;;;;;;8.00;6.55;;;26.40;33.70;;;;;;5102693;27;20047;-79
2021/06/01 17:48:08;;;;;;;11.18;7.22;;;26.40;34.10;;;;;;5103901;27;20042;-83
2021/06/01 17:50:37;;;;;;;9.15;6.35;;;26.30;34.50;;;;;;5116127;27;20035;-77
2021/06/01 17:53:03;;;;;;;8.65;7.20;;;26.20;34.70;;;;;;5103698;27;20042;-82
2021/06/01 17:55:30;;;;;;;11.02;9.25;;;26.00;34.70;;;;;;5103312;27;20514;-78
2021/06/01 17:57:56;;;;;;;12.65;7.80;;;25.90;35.00;;;;;;5118416;27;20038;-76
2021/06/01 18:00:23;;;;;;;10.73;7.28;;;25.90;35.30;;;;;;5096682;28;20110;-76
2021/06/01 18:02:49;;;;;;;10.20;7.45;;;25.80;35.60;;;;;;5107499;28;20055;-75
2021/06/01 18:05:16;;;;;;;10.70;7.25;;;25.70;36.00;;;;;;5104809;28;20051;-77
2021/06/01 18:08:47;;;;;;;9.73;7.30;;;25.60;35.90;;;;;;5120894;28;20047;-75
2021/06/01 18:40:41;;;;;;;9.88;7.07;;;24.60;37.60;;;;;;5136229;27;20042;-76
2021/06/01 19:24:09;;;;;;;11.32;7.30;;;23.50;41.90;;;;;;5113689;27;20050;-80
2021/06/01 19:50:31;;;;;;;17.05;10.38;;;22.70;46.10;;;;;;5133542;27;20067;-85
2021/06/01 19:52:57;;;;;;;13.13;10.43;;;22.60;46.50;;;;;;5128593;27;20449;-81
2021/06/01 19:55:24;;;;;;;11.52;9.77;;;22.50;46.60;;;;;;5108010;27;20103;-81